createdAt,value
2022-12-29T00:01:06.965Z,5.90
2022-12-29T00:03:33.949Z,5.87
2022-12-29T00:06:01.975Z,5.83
2022-12-29T00:08:41.042Z,5.83
2022-12-29T00:11:21.855Z,5.90
2022-12-29T00:14:07.857Z,5.86
2022-12-29T00:16:36.448Z,5.89
2022-12-29T00:19:04.618Z,5.89
2022-12-29T00:21:50.780Z,5.94
2022-12-29T00:24:38.767Z,5.99
2022-12-29T00:27:23.998Z,6.11
2022-12-29T00:30:09.474Z,6.18
2022-12-29T00:32:55.079Z,6.26
2022-12-29T00:35:33.028Z,6.30
2022-12-29T00:38:24.880Z,6.29
2022-12-29T00:41:10.521Z,6.19
2022-12-29T00:43:56.104Z,6.11
2022-12-29T00:46:22.873Z,6.06
2022-12-29T00:49:08.328Z,6.11
2022-12-29T00:51:35.036Z,6.18
2022-12-29T00:54:01.777Z,6.21
2022-12-29T00:56:28.770Z,6.20
2022-12-29T00:58:55.527Z,6.20
2022-12-29T01:01:22.374Z,6.27
2022-12-29T01:03:49.308Z,6.37
2022-12-29T01:06:16.044Z,6.43
2022-12-29T01:08:42.775Z,6.48
2022-12-29T01:11:12.348Z,6.53
2022-12-29T01:13:42.011Z,6.50
2022-12-29T01:16:08.802Z,6.44
2022-12-29T01:18:35.726Z,6.33
2022-12-29T01:21:04.977Z,6.32
2022-12-29T01:23:32.367Z,6.31
2022-12-29T01:26:09.746Z,6.35
2022-12-29T01:28:36.490Z,6.43
2022-12-29T01:31:03.248Z,6.53
2022-12-29T01:33:30.149Z,6.60
2022-12-29T01:36:01.452Z,6.67
2022-12-29T01:38:28.064Z,6.72
2022-12-29T01:40:54.903Z,6.74
2022-12-29T01:43:21.647Z,6.75
2022-12-29T01:45:54.458Z,6.74
2022-12-29T01:48:21.683Z,6.75
2022-12-29T01:50:53.370Z,6.75
2022-12-29T01:53:29.443Z,6.76
2022-12-29T01:56:01.219Z,6.74
2022-12-29T01:58:33.342Z,6.75
2022-12-29T02:01:01.196Z,6.71
2022-12-29T02:03:30.657Z,6.69
2022-12-29T02:06:23.203Z,6.63
2022-12-29T02:08:53.385Z,6.54
2022-12-29T02:11:20.927Z,6.45
2022-12-29T02:13:47.776Z,6.34
2022-12-29T02:16:29.539Z,6.28
2022-12-29T02:18:56.551Z,6.28
2022-12-29T02:21:26.221Z,6.31
2022-12-29T02:24:26.002Z,6.34
2022-12-29T02:27:06.017Z,6.28
2022-12-29T02:30:20.568Z,6.18
2022-12-29T02:33:13.371Z,6.00
2022-12-29T02:36:09.116Z,5.92
2022-12-29T02:38:41.600Z,5.86
2022-12-29T02:41:33.213Z,5.86
2022-12-29T02:44:28.647Z,5.87
2022-12-29T02:47:02.227Z,5.86
2022-12-29T02:49:34.583Z,5.90
2022-12-29T02:52:24.439Z,5.90
2022-12-29T02:54:51.305Z,5.90
2022-12-29T02:57:24.005Z,5.87
2022-12-29T03:00:05.338Z,5.83
2022-12-29T03:03:10.588Z,5.84
2022-12-29T03:06:00.263Z,5.91
2022-12-29T03:08:45.373Z,5.93
2022-12-29T03:11:33.321Z,5.92
2022-12-29T03:14:33.284Z,5.79
2022-12-29T03:17:15.793Z,5.56
2022-12-29T03:19:49.043Z,5.38
2022-12-29T03:22:28.731Z,5.19
2022-12-29T03:25:00.784Z,5.07
2022-12-29T03:27:32.454Z,4.97
2022-12-29T03:30:04.033Z,4.89
2022-12-29T03:32:39.106Z,4.89
2022-12-29T03:35:08.577Z,4.91
2022-12-29T03:37:42.252Z,4.92
2022-12-29T03:40:09.919Z,5.03
2022-12-29T03:42:38.257Z,5.19
2022-12-29T03:45:07.533Z,5.24
2022-12-29T03:47:34.486Z,5.27
2022-12-29T03:50:01.256Z,5.11
2022-12-29T03:52:28.041Z,5.13
2022-12-29T03:54:54.824Z,5.07
2022-12-29T03:57:21.558Z,5.08
2022-12-29T03:59:48.345Z,5.09
2022-12-29T04:02:15.283Z,5.16
2022-12-29T04:04:42.198Z,5.22
2022-12-29T04:07:09.502Z,5.22
2022-12-29T04:09:36.337Z,5.21
2022-12-29T04:12:03.249Z,5.19
2022-12-29T04:14:29.980Z,5.08
2022-12-29T04:16:56.761Z,5.02
2022-12-29T04:19:23.748Z,5.00
2022-12-29T04:21:50.513Z,5.00
2022-12-29T04:24:18.709Z,5.01
2022-12-29T04:26:45.683Z,5.03
2022-12-29T04:29:12.479Z,5.11
2022-12-29T04:31:39.279Z,5.16
2022-12-29T04:34:06.171Z,5.22
2022-12-29T04:36:32.980Z,5.26
2022-12-29T04:38:59.858Z,5.30
2022-12-29T04:41:27.070Z,5.32
2022-12-29T04:43:53.814Z,5.29
2022-12-29T04:46:20.656Z,5.17
2022-12-29T04:48:47.505Z,5.05
2022-12-29T04:51:14.276Z,4.92
2022-12-29T04:53:41.221Z,4.85
2022-12-29T04:56:08.052Z,4.79
2022-12-29T04:58:34.762Z,4.75
2022-12-29T05:01:01.685Z,4.73
2022-12-29T05:03:28.512Z,4.69
2022-12-29T05:05:56.291Z,4.77
2022-12-29T05:08:27.999Z,4.82
2022-12-29T05:10:55.423Z,4.89
2022-12-29T05:13:22.193Z,4.89
2022-12-29T05:15:54.090Z,4.92
2022-12-29T05:18:21.230Z,4.90
2022-12-29T05:20:48.670Z,4.85
2022-12-29T05:23:16.087Z,4.77
2022-12-29T05:25:46.218Z,4.66
2022-12-29T05:28:13.680Z,4.63
2022-12-29T05:30:41.465Z,4.66
2022-12-29T05:33:08.295Z,4.71
2022-12-29T05:35:35.017Z,4.76
2022-12-29T05:38:01.890Z,4.86
2022-12-29T05:40:28.657Z,4.90
2022-12-29T05:42:55.361Z,4.94
2022-12-29T05:45:22.107Z,4.88
2022-12-29T05:47:48.805Z,4.96
2022-12-29T05:50:15.619Z,4.92
2022-12-29T05:52:42.533Z,4.99
2022-12-29T05:55:09.629Z,5.05
2022-12-29T05:57:36.590Z,5.11
2022-12-29T06:00:05.475Z,5.07
2022-12-29T06:02:32.359Z,4.99
2022-12-29T06:04:59.318Z,4.86
2022-12-29T06:07:26.256Z,4.73
2022-12-29T06:09:52.960Z,4.63
2022-12-29T06:12:19.742Z,4.61
2022-12-29T06:14:46.678Z,4.63
2022-12-29T06:17:13.508Z,4.65
2022-12-29T06:19:40.292Z,4.71
2022-12-29T06:22:08.414Z,4.84
2022-12-29T06:24:35.196Z,4.94
2022-12-29T06:27:01.952Z,5.02
2022-12-29T06:29:29.188Z,5.06
2022-12-29T06:31:59.147Z,5.09
2022-12-29T06:34:26.451Z,5.12
2022-12-29T06:36:53.238Z,5.06
2022-12-29T06:39:19.988Z,4.98
2022-12-29T06:41:46.746Z,4.88
2022-12-29T06:44:13.458Z,4.77
2022-12-29T06:46:40.206Z,4.76
2022-12-29T06:49:06.965Z,4.75
2022-12-29T06:51:33.881Z,4.76
2022-12-29T06:54:00.816Z,4.78
2022-12-29T06:56:27.551Z,4.81
2022-12-29T06:58:54.283Z,4.85
2022-12-29T07:01:21.263Z,4.87
2022-12-29T07:03:48.349Z,4.83
2022-12-29T07:06:15.291Z,4.86
2022-12-29T07:08:42.043Z,4.87
2022-12-29T07:11:11.450Z,4.81
2022-12-29T07:13:38.899Z,4.73
2022-12-29T07:16:10.347Z,4.72
2022-12-29T07:18:37.340Z,4.64
2022-12-29T07:21:04.750Z,4.56
2022-12-29T07:23:31.561Z,4.56
2022-12-29T07:26:03.217Z,4.64
2022-12-29T07:28:30.615Z,4.69
2022-12-29T07:30:57.426Z,4.72
2022-12-29T07:33:24.186Z,4.79
2022-12-29T07:35:51.110Z,4.78
2022-12-29T07:38:18.059Z,4.73
2022-12-29T07:40:44.779Z,4.66
2022-12-29T07:43:11.527Z,4.58
2022-12-29T07:45:38.395Z,4.51
2022-12-29T07:48:08.667Z,4.54
2022-12-29T07:50:36.071Z,4.60
2022-12-29T07:53:03.717Z,4.64
2022-12-29T07:55:30.926Z,4.66
2022-12-29T07:57:58.012Z,4.64
2022-12-29T08:00:25.536Z,4.59
2022-12-29T08:02:52.320Z,4.51
2022-12-29T08:05:19.110Z,4.46
2022-12-29T08:07:47.415Z,4.42
2022-12-29T08:10:15.015Z,4.37
2022-12-29T08:12:42.885Z,4.39
2022-12-29T08:15:11.283Z,4.47
2022-12-29T08:17:38.498Z,4.58
2022-12-29T08:20:05.880Z,4.64
2022-12-29T08:22:32.573Z,4.70
2022-12-29T08:24:59.639Z,4.70
2022-12-29T08:27:27.707Z,4.82
2022-12-29T08:29:54.481Z,4.82
2022-12-29T08:32:21.211Z,4.86
2022-12-29T08:34:48.031Z,4.89
2022-12-29T08:37:14.668Z,4.91
2022-12-29T08:39:41.402Z,4.87
2022-12-29T08:42:08.106Z,4.81
2022-12-29T08:44:34.945Z,4.84
2022-12-29T08:47:01.820Z,4.87
2022-12-29T08:49:28.665Z,4.89
2022-12-29T08:51:55.383Z,4.97
2022-12-29T08:54:22.205Z,5.03
2022-12-29T08:56:49.013Z,5.07
2022-12-29T08:59:15.710Z,5.09
2022-12-29T09:01:42.685Z,5.09
2022-12-29T09:04:15.446Z,5.12
2022-12-29T09:06:44.593Z,5.16
2022-12-29T09:09:12.181Z,5.17
2022-12-29T09:11:39.020Z,5.17
2022-12-29T09:14:05.963Z,5.20
2022-12-29T09:16:33.737Z,5.20
2022-12-29T09:19:01.212Z,5.23
2022-12-29T09:21:28.161Z,5.24
2022-12-29T09:23:55.035Z,5.24
2022-12-29T09:26:21.744Z,5.26
2022-12-29T09:28:48.688Z,5.24
2022-12-29T09:31:15.522Z,5.24
2022-12-29T09:33:42.381Z,5.24
2022-12-29T09:36:09.885Z,5.33
2022-12-29T09:38:37.260Z,5.37
2022-12-29T09:41:30.259Z,5.39
2022-12-29T09:43:56.938Z,5.40
2022-12-29T09:46:36.100Z,5.38
2022-12-29T09:49:20.233Z,5.31
2022-12-29T09:51:52.033Z,5.33
2022-12-29T09:54:38.158Z,5.26
2022-12-29T09:57:06.234Z,5.25
2022-12-29T09:59:41.952Z,5.19
2022-12-29T10:02:30.064Z,5.17
2022-12-29T10:04:56.928Z,5.09
2022-12-29T10:07:30.626Z,5.22
2022-12-29T10:10:22.133Z,5.43
2022-12-29T10:13:05.549Z,5.55
2022-12-29T10:15:40.922Z,5.49
2022-12-29T10:18:44.960Z,5.42
2022-12-29T10:21:40.596Z,5.37
2022-12-29T10:24:11.618Z,5.36
2022-12-29T10:26:43.918Z,5.30
2022-12-29T10:29:20.833Z,5.25
2022-12-29T10:31:50.826Z,5.26
2022-12-29T10:34:26.354Z,5.30
2022-12-29T10:37:03.990Z,5.38
2022-12-29T10:39:46.676Z,5.42
2022-12-29T10:42:26.825Z,5.42
2022-12-29T10:44:55.272Z,5.38
2022-12-29T10:47:30.917Z,5.31
2022-12-29T10:49:59.505Z,5.28
2022-12-29T10:52:29.028Z,5.35
2022-12-29T10:54:59.546Z,5.53
2022-12-29T10:57:45.380Z,5.93
2022-12-29T11:00:15.019Z,6.26
2022-12-29T11:03:10.715Z,6.53
2022-12-29T11:05:55.839Z,6.87
2022-12-29T11:08:48.110Z,7.12
2022-12-29T11:11:24.982Z,7.36
2022-12-29T11:13:57.811Z,7.64
2022-12-29T11:16:34.054Z,7.92
2022-12-29T11:19:02.028Z,8.01
2022-12-29T11:21:41.329Z,7.84
2022-12-29T11:24:20.651Z,7.56
2022-12-29T11:26:49.811Z,7.37
2022-12-29T11:29:42.673Z,7.18
2022-12-29T11:32:32.920Z,6.92
2022-12-29T11:35:00.322Z,6.91
2022-12-29T11:37:40.038Z,6.89
2022-12-29T11:40:09.243Z,7.02
2022-12-29T11:42:56.246Z,7.27
2022-12-29T11:45:24.505Z,7.52
2022-12-29T11:48:01.866Z,7.60
2022-12-29T11:50:32.813Z,7.76
2022-12-29T11:53:37.824Z,7.84
2022-12-29T11:56:09.971Z,8.01
2022-12-29T11:58:39.132Z,8.22
2022-12-29T12:01:28.027Z,8.35
2022-12-29T12:04:05.011Z,8.75
2022-12-29T12:06:42.757Z,9.08
2022-12-29T12:09:24.001Z,9.01
2022-12-29T12:11:55.091Z,9.00
2022-12-29T12:14:29.916Z,8.88
2022-12-29T12:17:03.299Z,8.62
2022-12-29T12:19:43.188Z,8.37
2022-12-29T12:22:17.118Z,8.34
2022-12-29T12:24:55.895Z,8.42
2022-12-29T12:27:41.261Z,8.55
2022-12-29T12:30:20.507Z,8.57
2022-12-29T12:32:56.131Z,8.38
2022-12-29T12:35:52.057Z,8.24
2022-12-29T12:38:21.512Z,8.01
2022-12-29T12:40:54.243Z,7.86
2022-12-29T12:43:39.148Z,7.58
2022-12-29T12:46:43.140Z,7.31
2022-12-29T12:49:24.892Z,7.12
2022-12-29T12:52:13.480Z,6.98
2022-12-29T12:54:55.257Z,6.95
2022-12-29T12:57:46.626Z,6.87
2022-12-29T13:00:24.212Z,6.82
2022-12-29T13:03:14.980Z,6.63
2022-12-29T13:06:12.695Z,6.53
2022-12-29T13:09:01.650Z,6.48
2022-12-29T13:12:07.168Z,6.50
2022-12-29T13:14:55.020Z,6.55
2022-12-29T13:17:38.577Z,6.57
2022-12-29T13:20:11.387Z,6.64
2022-12-29T13:22:56.754Z,6.68
2022-12-29T13:25:46.477Z,6.76
2022-12-29T13:28:31.317Z,6.75
2022-12-29T13:31:15.328Z,6.80
2022-12-29T13:33:50.000Z,6.79
2022-12-29T13:36:22.741Z,6.76
2022-12-29T13:39:27.663Z,6.84
2022-12-29T13:41:56.674Z,7.05
2022-12-29T13:44:28.029Z,7.29
2022-12-29T13:47:00.621Z,7.52
2022-12-29T13:49:28.919Z,7.63
2022-12-29T13:51:59.120Z,7.65
2022-12-29T13:55:04.649Z,7.60
2022-12-29T13:57:42.427Z,7.53
2022-12-29T14:00:21.714Z,7.30
2022-12-29T14:02:54.601Z,7.17
2022-12-29T14:05:21.394Z,7.05
2022-12-29T14:07:50.046Z,6.93
2022-12-29T14:10:31.167Z,6.92
2022-12-29T14:13:27.643Z,7.00
2022-12-29T14:15:59.796Z,7.16
2022-12-29T14:18:30.060Z,7.20
2022-12-29T14:21:19.732Z,7.23
2022-12-29T14:23:48.867Z,7.22
2022-12-29T14:26:28.975Z,7.22
2022-12-29T14:28:59.895Z,7.23
2022-12-29T14:31:31.306Z,7.22
2022-12-29T14:34:07.282Z,7.18
2022-12-29T14:36:56.132Z,7.18
2022-12-29T14:39:37.990Z,7.19
2022-12-29T14:42:07.542Z,7.13
2022-12-29T14:44:35.134Z,7.15
2022-12-29T14:47:09.995Z,7.14
2022-12-29T14:49:45.596Z,7.13
2022-12-29T14:52:26.953Z,7.08
2022-12-29T14:55:01.690Z,7.01
2022-12-29T14:57:30.094Z,6.97
2022-12-29T15:00:06.935Z,6.96
2022-12-29T15:02:39.715Z,6.95
2022-12-29T15:05:20.584Z,6.94
2022-12-29T15:07:47.785Z,6.93
2022-12-29T15:10:18.814Z,6.89
2022-12-29T15:12:54.567Z,6.86
2022-12-29T15:15:30.965Z,6.76
2022-12-29T15:17:57.847Z,6.69
2022-12-29T15:20:30.942Z,6.64
2022-12-29T15:23:13.098Z,6.63
2022-12-29T15:25:54.344Z,6.62
2022-12-29T15:28:23.191Z,6.65
2022-12-29T15:31:05.124Z,6.65
2022-12-29T15:33:32.010Z,6.63
2022-12-29T15:36:04.862Z,6.63
2022-12-29T15:38:38.636Z,6.63
2022-12-29T15:41:27.197Z,6.58
2022-12-29T15:44:21.620Z,6.53
2022-12-29T15:46:48.386Z,6.45
2022-12-29T15:49:15.638Z,6.38
2022-12-29T15:51:43.231Z,6.34
2022-12-29T15:54:21.675Z,6.29
2022-12-29T15:56:51.010Z,6.24
2022-12-29T15:59:29.610Z,6.22
2022-12-29T16:02:03.581Z,6.17
2022-12-29T16:04:48.655Z,6.20
2022-12-29T16:07:39.166Z,6.21
2022-12-29T16:10:26.149Z,6.21
2022-12-29T16:12:53.011Z,6.23
2022-12-29T16:15:20.218Z,6.23
2022-12-29T16:17:55.119Z,6.19
2022-12-29T16:20:29.799Z,6.15
2022-12-29T16:23:00.309Z,6.07
2022-12-29T16:25:32.585Z,6.11
2022-12-29T16:28:01.087Z,6.01
2022-12-29T16:30:34.172Z,6.09
2022-12-29T16:33:04.451Z,6.04
2022-12-29T16:35:46.039Z,6.00
2022-12-29T16:38:15.718Z,5.96
2022-12-29T16:41:05.803Z,5.90
2022-12-29T16:43:35.961Z,5.85
2022-12-29T16:46:02.713Z,5.81
2022-12-29T16:48:46.610Z,5.80
2022-12-29T16:51:41.523Z,5.81
2022-12-29T16:54:21.074Z,5.81
2022-12-29T16:56:48.787Z,5.81
2022-12-29T16:59:30.206Z,5.78
2022-12-29T17:01:57.950Z,5.81
2022-12-29T17:04:24.755Z,5.83
2022-12-29T17:06:51.532Z,5.86
2022-12-29T17:09:23.719Z,5.90
2022-12-29T17:12:01.635Z,5.88
2022-12-29T17:15:13.565Z,5.86
2022-12-29T17:17:52.788Z,5.85
2022-12-29T17:20:29.311Z,5.80
2022-12-29T17:22:57.405Z,5.80
2022-12-29T17:25:31.541Z,5.76
2022-12-29T17:28:02.126Z,5.73
2022-12-29T17:30:33.886Z,5.73
2022-12-29T17:33:27.941Z,5.67
2022-12-29T17:35:55.911Z,5.70
2022-12-29T17:38:30.253Z,5.71
2022-12-29T17:40:57.823Z,5.69
2022-12-29T17:43:24.777Z,5.69
2022-12-29T17:45:55.335Z,5.72
2022-12-29T17:48:22.708Z,5.71
2022-12-29T17:50:52.206Z,5.67
2022-12-29T17:53:29.374Z,5.69
2022-12-29T17:55:56.610Z,5.69
2022-12-29T17:58:31.823Z,5.69
2022-12-29T18:01:00.655Z,5.61
2022-12-29T18:03:31.434Z,5.66
2022-12-29T18:05:58.632Z,5.66
2022-12-29T18:08:25.721Z,5.68
2022-12-29T18:10:54.826Z,5.71
2022-12-29T18:13:35.007Z,5.71
2022-12-29T18:16:10.882Z,5.73
2022-12-29T18:18:38.409Z,5.75
2022-12-29T18:21:05.267Z,5.79
2022-12-29T18:23:37.022Z,5.78
2022-12-29T18:26:35.800Z,5.82
2022-12-29T18:29:02.693Z,5.83
2022-12-29T18:31:32.090Z,5.88
2022-12-29T18:34:01.423Z,5.88
2022-12-29T18:36:29.164Z,5.90
2022-12-29T18:38:56.030Z,5.88
2022-12-29T18:41:31.457Z,5.89
2022-12-29T18:43:59.659Z,5.87
2022-12-29T18:46:26.616Z,5.88
2022-12-29T18:48:53.864Z,5.86
2022-12-29T18:51:23.591Z,5.87
2022-12-29T18:53:53.103Z,5.90
2022-12-29T18:56:21.169Z,5.89
2022-12-29T18:58:47.896Z,5.92
2022-12-29T19:01:21.085Z,5.92
2022-12-29T19:03:48.526Z,5.94
2022-12-29T19:06:15.344Z,5.97
2022-12-29T19:08:42.338Z,5.98
2022-12-29T19:11:09.214Z,5.98
2022-12-29T19:13:36.036Z,5.97
2022-12-29T19:16:03.096Z,6.01
2022-12-29T19:18:53.320Z,6.03
2022-12-29T19:21:20.143Z,6.03
2022-12-29T19:23:47.188Z,6.07
2022-12-29T19:26:29.383Z,6.03
2022-12-29T19:28:56.421Z,6.07
2022-12-29T19:31:23.210Z,6.09
2022-12-29T19:33:50.076Z,6.11
2022-12-29T19:36:17.141Z,6.08
2022-12-29T19:38:45.196Z,6.07
2022-12-29T19:41:12.579Z,6.07
2022-12-29T19:43:39.339Z,6.05
2022-12-29T19:46:08.465Z,6.01
2022-12-29T19:48:36.184Z,6.00
2022-12-29T19:51:08.368Z,6.02
2022-12-29T19:53:36.362Z,6.03
2022-12-29T19:56:08.184Z,6.03
2022-12-29T19:58:38.707Z,6.07
2022-12-29T20:01:17.006Z,6.04
2022-12-29T20:03:43.842Z,6.07
2022-12-29T20:06:12.012Z,6.08
2022-12-29T20:08:39.697Z,6.09
2022-12-29T20:11:09.500Z,6.11
2022-12-29T20:13:36.633Z,6.13
2022-12-29T20:16:07.263Z,6.15
2022-12-29T20:18:36.139Z,6.19
2022-12-29T20:21:05.587Z,6.21
2022-12-29T20:23:33.525Z,6.24
2022-12-29T20:26:01.751Z,6.26
2022-12-29T20:28:29.501Z,6.32
2022-12-29T20:30:59.985Z,6.36
2022-12-29T20:33:27.314Z,6.37
2022-12-29T20:35:54.228Z,6.40
2022-12-29T20:38:21.125Z,6.46
2022-12-29T20:40:47.936Z,6.52
2022-12-29T20:43:16.185Z,6.50
2022-12-29T20:45:43.043Z,6.57
2022-12-29T20:48:09.975Z,6.63
2022-12-29T20:50:36.770Z,6.69
2022-12-29T20:53:04.048Z,6.72
2022-12-29T20:55:31.037Z,6.82
2022-12-29T20:58:23.140Z,6.90
2022-12-29T21:00:44.828Z,6.96
2022-12-29T21:03:11.808Z,7.03
2022-12-29T21:05:39.293Z,7.05
2022-12-29T21:08:06.382Z,7.17
2022-12-29T21:10:33.119Z,7.21
2022-12-29T21:13:01.673Z,7.27
2022-12-29T21:15:30.156Z,7.34
2022-12-29T21:17:56.878Z,7.42
2022-12-29T21:20:30.356Z,7.52
2022-12-29T21:23:01.321Z,7.64
2022-12-29T21:25:39.413Z,7.75
2022-12-29T21:28:08.646Z,7.86
2022-12-29T21:30:35.722Z,7.96
2022-12-29T21:33:02.692Z,8.06
2022-12-29T21:35:29.666Z,8.16
2022-12-29T21:37:56.704Z,8.25
2022-12-29T21:40:23.416Z,8.34
2022-12-29T21:42:50.254Z,8.43
2022-12-29T21:45:25.952Z,8.49
2022-12-29T21:48:23.945Z,8.53
2022-12-29T21:51:31.144Z,8.59
2022-12-29T21:54:20.765Z,8.64
2022-12-29T21:56:48.958Z,8.68
2022-12-29T21:59:35.112Z,8.72
2022-12-29T22:02:22.739Z,8.79
2022-12-29T22:05:08.227Z,8.80
2022-12-29T22:07:53.529Z,8.83
2022-12-29T22:10:39.307Z,8.88
2022-12-29T22:13:06.025Z,8.93
2022-12-29T22:15:35.739Z,8.97
2022-12-29T22:18:04.586Z,8.96
2022-12-29T22:20:34.195Z,8.96
2022-12-29T22:23:02.774Z,8.97
2022-12-29T22:25:30.035Z,8.98
2022-12-29T22:27:59.560Z,9.01
2022-12-29T22:30:27.954Z,9.01
2022-12-29T22:32:56.760Z,9.00
2022-12-29T22:35:23.505Z,9.01
2022-12-29T22:37:50.304Z,9.00
2022-12-29T22:40:17.178Z,9.00
2022-12-29T22:42:43.946Z,9.04
2022-12-29T22:45:11.204Z,9.04
2022-12-29T22:47:38.076Z,9.07
2022-12-29T22:50:05.111Z,9.06
2022-12-29T22:52:31.855Z,9.08
2022-12-29T22:55:04.628Z,9.12
2022-12-29T22:57:33.545Z,9.19
2022-12-29T23:00:00.600Z,9.27
2022-12-29T23:02:27.677Z,9.30
2022-12-29T23:05:03.952Z,9.32
2022-12-29T23:07:32.483Z,9.37
2022-12-29T23:09:59.357Z,9.39
2022-12-29T23:12:27.518Z,9.38
2022-12-29T23:14:54.302Z,9.41
2022-12-29T23:17:20.987Z,9.40
2022-12-29T23:19:47.731Z,9.43
2022-12-29T23:22:15.033Z,9.45
2022-12-29T23:24:41.876Z,9.44
2022-12-29T23:27:08.699Z,9.47
2022-12-29T23:29:35.534Z,9.47
2022-12-29T23:32:02.360Z,9.48
2022-12-29T23:34:29.156Z,9.51
2022-12-29T23:36:55.894Z,9.50
2022-12-29T23:39:24.597Z,9.52
2022-12-29T23:41:52.336Z,9.53
2022-12-29T23:44:19.163Z,9.54
2022-12-29T23:46:46.303Z,9.52
2022-12-29T23:49:13.345Z,9.52
2022-12-29T23:51:40.118Z,9.53
2022-12-29T23:54:07.045Z,9.54
2022-12-29T23:56:33.913Z,9.56
2022-12-29T23:59:04.226Z,9.57
